This is the latest recevied weather packets stored in our database for station/object KH2PM. If no packets are shown the sender has not sent any weather packets the latest 10 day(s).
| Time | Temp. | Humidity | Pressure | Rain* | Wind** | Luminosity | Snow |
|---|---|---|---|---|---|---|---|
| 1778064904 | 16.67° C | 81% | 1014.7 hPa | 0 mm | - | - | - |
| 1778064004 | 16.67° C | 81% | 1014.5 hPa | 0 mm | - | - | - |
| 1778063705 | 17.22° C | 80% | 1014.5 hPa | 0 mm | - | - | - |
| 1778061605 | 16.67° C | 83% | 1014.6 hPa | 0 mm | - | - | - |
| 1778061304 | 16.67° C | 82% | 1014.7 hPa | 0 mm | - | - | - |
| 1778060404 | 16.67° C | 82% | 1015.1 hPa | 0 mm | - | - | - |
| 1778060104 | 16.67° C | 82% | 1015.1 hPa | 0 mm | - | - | - |
| 1778057704 | 16.67° C | 82% | 1015 hPa | 0 mm | - | - | - |
| 1778056504 | 16.11° C | 83% | 1014.9 hPa | 0 mm | - | - | - |
| 1778055304 | 16.11° C | 83% | 1015 hPa | 0 mm | - | - | - |
| 1778052005 | 16.67° C | 81% | 1015 hPa | 0 mm | - | - | - |
| 1778051705 | 16.67° C | 81% | 1015 hPa | 0 mm | - | - | - |
| 1778051404 | 16.67° C | 81% | 1015 hPa | 0 mm | - | - | - |
| 1778050204 | 16.67° C | 80% | 1014.9 hPa | 0 mm | - | - | - |
| 1778047804 | 17.22° C | 79% | 1015.3 hPa | 0 mm | - | - | - |
| 1778043605 | 17.78° C | 77% | 1015.9 hPa | 0 mm | - | - | - |
| 1778036104 | 19.44° C | 69% | 1016.5 hPa | 0 mm | - | - | - |
| 1778035804 | 19.44° C | 69% | 1016.5 hPa | 0 mm | - | - | - |
| 1778034305 | 20° C | 67% | 1016.4 hPa | 0 mm | - | - | - |
| 1778032204 | 20.56° C | 64% | 1016 hPa | 0 mm | - | - | - |
| 1778030404 | 21.67° C | 61% | 1015.7 hPa | 0 mm | - | - | - |
| 1778028604 | 22.22° C | 58% | 1015.2 hPa | 0 mm | - | - | - |
| 1778028004 | 22.22° C | 57% | 1015.1 hPa | 0 mm | - | - | - |
| 1778027705 | 22.78° C | 56% | 1015 hPa | 0 mm | - | - | - |
| 1778027404 | 22.78° C | 55% | 1014.9 hPa | 0 mm | - | - | - |
* Rain latest hour (hover to see other rain measurements)
** Current wind speed in m/s (hover to see current wind gust speed)